sensor_id;sensor_type;location;lat;lon;timestamp;P1;durP1;ratioP1;P2;durP2;ratioP2
27566;SDS011;15006;48.584;9.186;2023-03-01T00:01:17;31.42;;;19.00;;
27566;SDS011;15006;48.584;9.186;2023-03-01T00:03:54;28.08;;;17.75;;
27566;SDS011;15006;48.584;9.186;2023-03-01T00:06:25;31.10;;;19.20;;
27566;SDS011;15006;48.584;9.186;2023-03-01T00:08:54;31.77;;;18.70;;
27566;SDS011;15006;48.584;9.186;2023-03-01T00:11:23;29.38;;;18.70;;
27566;SDS011;15006;48.584;9.186;2023-03-01T00:13:55;27.55;;;18.92;;
27566;SDS011;15006;48.584;9.186;2023-03-01T00:16:27;26.45;;;18.20;;
27566;SDS011;15006;48.584;9.186;2023-03-01T00:18:59;28.20;;;17.25;;
27566;SDS011;15006;48.584;9.186;2023-03-01T00:21:27;29.20;;;18.77;;
27566;SDS011;15006;48.584;9.186;2023-03-01T00:24:12;21.25;;;13.77;;
27566;SDS011;15006;48.584;9.186;2023-03-01T00:26:45;30.20;;;18.25;;
27566;SDS011;15006;48.584;9.186;2023-03-01T00:29:27;27.88;;;18.75;;
27566;SDS011;15006;48.584;9.186;2023-03-01T00:31:53;26.45;;;18.25;;
27566;SDS011;15006;48.584;9.186;2023-03-01T00:34:21;29.33;;;18.58;;
27566;SDS011;15006;48.584;9.186;2023-03-01T00:36:49;30.08;;;19.08;;
27566;SDS011;15006;48.584;9.186;2023-03-01T00:39:16;28.45;;;18.50;;
27566;SDS011;15006;48.584;9.186;2023-03-01T00:41:45;28.13;;;18.55;;
27566;SDS011;15006;48.584;9.186;2023-03-01T00:44:21;31.38;;;19.38;;
27566;SDS011;15006;48.584;9.186;2023-03-01T00:46:49;28.33;;;18.65;;
27566;SDS011;15006;48.584;9.186;2023-03-01T00:49:16;29.92;;;18.50;;
27566;SDS011;15006;48.584;9.186;2023-03-01T00:51:43;30.75;;;20.08;;
27566;SDS011;15006;48.584;9.186;2023-03-01T00:54:11;30.98;;;19.35;;
27566;SDS011;15006;48.584;9.186;2023-03-01T00:56:39;35.55;;;19.95;;
27566;SDS011;15006;48.584;9.186;2023-03-01T00:59:05;27.02;;;18.77;;
27566;SDS011;15006;48.584;9.186;2023-03-01T01:01:31;29.85;;;19.15;;
27566;SDS011;15006;48.584;9.186;2023-03-01T01:04:00;32.33;;;19.80;;
27566;SDS011;15006;48.584;9.186;2023-03-01T01:06:34;31.60;;;19.90;;
27566;SDS011;15006;48.584;9.186;2023-03-01T01:09:10;28.95;;;18.92;;
27566;SDS011;15006;48.584;9.186;2023-03-01T01:11:43;36.00;;;20.77;;
27566;SDS011;15006;48.584;9.186;2023-03-01T01:14:15;36.22;;;20.70;;
27566;SDS011;15006;48.584;9.186;2023-03-01T01:16:42;31.63;;;20.02;;
27566;SDS011;15006;48.584;9.186;2023-03-01T01:19:09;30.85;;;20.23;;
27566;SDS011;15006;48.584;9.186;2023-03-01T01:21:36;36.83;;;22.00;;
27566;SDS011;15006;48.584;9.186;2023-03-01T01:24:03;31.80;;;20.45;;
27566;SDS011;15006;48.584;9.186;2023-03-01T01:26:31;34.15;;;20.23;;
27566;SDS011;15006;48.584;9.186;2023-03-01T01:28:59;32.13;;;20.52;;
27566;SDS011;15006;48.584;9.186;2023-03-01T01:31:27;33.83;;;20.17;;
27566;SDS011;15006;48.584;9.186;2023-03-01T01:33:55;30.88;;;20.33;;
27566;SDS011;15006;48.584;9.186;2023-03-01T01:36:21;33.00;;;19.95;;
27566;SDS011;15006;48.584;9.186;2023-03-01T01:38:48;33.00;;;20.83;;
27566;SDS011;15006;48.584;9.186;2023-03-01T01:41:14;34.03;;;21.50;;
27566;SDS011;15006;48.584;9.186;2023-03-01T01:43:41;34.10;;;21.13;;
27566;SDS011;15006;48.584;9.186;2023-03-01T01:49:07;31.63;;;20.23;;
27566;SDS011;15006;48.584;9.186;2023-03-01T01:51:47;32.22;;;20.50;;
27566;SDS011;15006;48.584;9.186;2023-03-01T01:54:20;33.88;;;20.80;;
27566;SDS011;15006;48.584;9.186;2023-03-01T01:56:55;32.55;;;21.05;;
27566;SDS011;15006;48.584;9.186;2023-03-01T01:59:30;31.23;;;19.77;;
27566;SDS011;15006;48.584;9.186;2023-03-01T02:01:59;36.58;;;22.13;;
27566;SDS011;15006;48.584;9.186;2023-03-01T02:04:31;34.22;;;21.02;;
27566;SDS011;15006;48.584;9.186;2023-03-01T02:07:05;34.05;;;22.35;;
27566;SDS011;15006;48.584;9.186;2023-03-01T02:09:43;33.55;;;21.23;;
27566;SDS011;15006;48.584;9.186;2023-03-01T02:12:13;29.70;;;20.38;;
27566;SDS011;15006;48.584;9.186;2023-03-01T02:14:43;33.63;;;21.07;;
27566;SDS011;15006;48.584;9.186;2023-03-01T02:17:09;33.88;;;20.30;;
27566;SDS011;15006;48.584;9.186;2023-03-01T02:22:22;30.05;;;20.40;;
27566;SDS011;15006;48.584;9.186;2023-03-01T02:27:48;34.75;;;20.40;;
27566;SDS011;15006;48.584;9.186;2023-03-01T02:30:43;33.53;;;20.85;;
27566;SDS011;15006;48.584;9.186;2023-03-01T02:33:32;35.78;;;20.58;;
27566;SDS011;15006;48.584;9.186;2023-03-01T02:36:09;30.45;;;21.08;;
27566;SDS011;15006;48.584;9.186;2023-03-01T02:38:41;32.90;;;21.23;;
27566;SDS011;15006;48.584;9.186;2023-03-01T02:41:07;30.65;;;20.13;;
27566;SDS011;15006;48.584;9.186;2023-03-01T02:43:37;31.00;;;19.77;;
27566;SDS011;15006;48.584;9.186;2023-03-01T02:46:07;33.75;;;20.90;;
27566;SDS011;15006;48.584;9.186;2023-03-01T02:48:41;32.03;;;20.55;;
27566;SDS011;15006;48.584;9.186;2023-03-01T02:51:26;29.50;;;20.00;;
27566;SDS011;15006;48.584;9.186;2023-03-01T02:56:53;32.42;;;20.20;;
27566;SDS011;15006;48.584;9.186;2023-03-01T02:59:20;32.58;;;21.00;;
27566;SDS011;15006;48.584;9.186;2023-03-01T03:01:50;30.42;;;20.70;;
27566;SDS011;15006;48.584;9.186;2023-03-01T03:04:17;28.23;;;20.33;;
27566;SDS011;15006;48.584;9.186;2023-03-01T03:06:47;29.95;;;20.50;;
27566;SDS011;15006;48.584;9.186;2023-03-01T03:09:16;32.38;;;20.63;;
27566;SDS011;15006;48.584;9.186;2023-03-01T03:11:43;30.48;;;20.70;;
27566;SDS011;15006;48.584;9.186;2023-03-01T03:14:10;42.05;;;21.42;;
27566;SDS011;15006;48.584;9.186;2023-03-01T03:16:42;29.38;;;19.83;;
27566;SDS011;15006;48.584;9.186;2023-03-01T03:19:11;29.70;;;20.33;;
27566;SDS011;15006;48.584;9.186;2023-03-01T03:21:37;30.20;;;20.95;;
27566;SDS011;15006;48.584;9.186;2023-03-01T03:24:04;31.25;;;19.60;;
27566;SDS011;15006;48.584;9.186;2023-03-01T03:26:30;29.90;;;20.67;;
27566;SDS011;15006;48.584;9.186;2023-03-01T03:28:57;33.22;;;21.13;;
27566;SDS011;15006;48.584;9.186;2023-03-01T03:31:23;30.83;;;20.58;;
27566;SDS011;15006;48.584;9.186;2023-03-01T03:33:49;32.03;;;20.85;;
27566;SDS011;15006;48.584;9.186;2023-03-01T03:36:18;34.90;;;20.90;;
27566;SDS011;15006;48.584;9.186;2023-03-01T03:38:47;29.40;;;20.60;;
27566;SDS011;15006;48.584;9.186;2023-03-01T03:41:14;32.70;;;20.83;;
27566;SDS011;15006;48.584;9.186;2023-03-01T03:43:41;30.20;;;20.73;;
27566;SDS011;15006;48.584;9.186;2023-03-01T03:46:09;33.35;;;20.85;;
27566;SDS011;15006;48.584;9.186;2023-03-01T03:48:40;32.05;;;21.08;;
27566;SDS011;15006;48.584;9.186;2023-03-01T03:51:10;34.80;;;21.52;;
27566;SDS011;15006;48.584;9.186;2023-03-01T03:53:38;30.92;;;20.95;;
27566;SDS011;15006;48.584;9.186;2023-03-01T03:56:04;33.10;;;20.70;;
27566;SDS011;15006;48.584;9.186;2023-03-01T03:58:31;30.45;;;20.70;;
27566;SDS011;15006;48.584;9.186;2023-03-01T04:00:57;31.30;;;20.75;;
27566;SDS011;15006;48.584;9.186;2023-03-01T04:03:23;32.13;;;20.95;;
27566;SDS011;15006;48.584;9.186;2023-03-01T04:05:51;31.42;;;20.27;;
27566;SDS011;15006;48.584;9.186;2023-03-01T04:08:21;33.08;;;21.92;;
27566;SDS011;15006;48.584;9.186;2023-03-01T04:10:49;31.70;;;21.23;;
27566;SDS011;15006;48.584;9.186;2023-03-01T04:13:21;34.63;;;21.17;;
27566;SDS011;15006;48.584;9.186;2023-03-01T04:15:48;33.15;;;21.50;;
27566;SDS011;15006;48.584;9.186;2023-03-01T04:18:17;33.95;;;21.05;;
27566;SDS011;15006;48.584;9.186;2023-03-01T04:20:45;33.17;;;21.13;;
27566;SDS011;15006;48.584;9.186;2023-03-01T04:23:16;35.13;;;22.67;;
27566;SDS011;15006;48.584;9.186;2023-03-01T04:25:50;38.17;;;23.20;;
27566;SDS011;15006;48.584;9.186;2023-03-01T04:28:41;32.42;;;20.95;;
27566;SDS011;15006;48.584;9.186;2023-03-01T04:33:46;33.28;;;21.90;;
27566;SDS011;15006;48.584;9.186;2023-03-01T04:36:18;35.20;;;21.92;;
27566;SDS011;15006;48.584;9.186;2023-03-01T04:38:47;35.72;;;21.98;;
27566;SDS011;15006;48.584;9.186;2023-03-01T04:41:14;33.30;;;21.70;;
27566;SDS011;15006;48.584;9.186;2023-03-01T04:43:43;32.97;;;21.25;;
27566;SDS011;15006;48.584;9.186;2023-03-01T04:46:11;35.78;;;22.42;;
27566;SDS011;15006;48.584;9.186;2023-03-01T04:52:22;34.40;;;22.63;;
27566;SDS011;15006;48.584;9.186;2023-03-01T04:54:49;36.97;;;22.42;;
27566;SDS011;15006;48.584;9.186;2023-03-01T04:57:15;36.10;;;21.58;;
27566;SDS011;15006;48.584;9.186;2023-03-01T04:59:40;33.47;;;22.00;;
27566;SDS011;15006;48.584;9.186;2023-03-01T05:02:07;34.70;;;22.10;;
27566;SDS011;15006;48.584;9.186;2023-03-01T05:04:32;38.15;;;23.13;;
27566;SDS011;15006;48.584;9.186;2023-03-01T05:06:59;38.53;;;23.25;;
27566;SDS011;15006;48.584;9.186;2023-03-01T05:09:25;31.77;;;22.25;;
27566;SDS011;15006;48.584;9.186;2023-03-01T05:11:51;40.80;;;23.48;;
27566;SDS011;15006;48.584;9.186;2023-03-01T05:14:17;35.25;;;23.00;;
27566;SDS011;15006;48.584;9.186;2023-03-01T05:16:43;36.42;;;23.52;;
27566;SDS011;15006;48.584;9.186;2023-03-01T05:19:09;40.63;;;23.38;;
27566;SDS011;15006;48.584;9.186;2023-03-01T05:21:41;40.15;;;23.92;;
27566;SDS011;15006;48.584;9.186;2023-03-01T05:24:27;35.75;;;23.15;;
27566;SDS011;15006;48.584;9.186;2023-03-01T05:26:55;36.28;;;23.05;;
27566;SDS011;15006;48.584;9.186;2023-03-01T05:29:24;35.97;;;23.05;;
27566;SDS011;15006;48.584;9.186;2023-03-01T05:31:55;39.03;;;24.80;;
27566;SDS011;15006;48.584;9.186;2023-03-01T05:34:33;34.47;;;22.73;;
27566;SDS011;15006;48.584;9.186;2023-03-01T05:37:01;39.15;;;23.75;;
27566;SDS011;15006;48.584;9.186;2023-03-01T05:39:29;39.40;;;24.35;;
27566;SDS011;15006;48.584;9.186;2023-03-01T05:41:57;44.33;;;27.85;;
27566;SDS011;15006;48.584;9.186;2023-03-01T05:44:27;38.95;;;24.13;;
27566;SDS011;15006;48.584;9.186;2023-03-01T05:46:54;37.95;;;24.38;;
27566;SDS011;15006;48.584;9.186;2023-03-01T05:49:20;39.47;;;23.25;;
27566;SDS011;15006;48.584;9.186;2023-03-01T05:51:50;38.42;;;24.88;;
27566;SDS011;15006;48.584;9.186;2023-03-01T05:54:18;39.70;;;25.30;;
27566;SDS011;15006;48.584;9.186;2023-03-01T05:56:45;42.88;;;25.75;;
27566;SDS011;15006;48.584;9.186;2023-03-01T05:59:12;41.90;;;24.65;;
27566;SDS011;15006;48.584;9.186;2023-03-01T06:01:39;38.30;;;24.10;;
27566;SDS011;15006;48.584;9.186;2023-03-01T06:04:05;42.85;;;24.13;;
27566;SDS011;15006;48.584;9.186;2023-03-01T06:06:34;39.45;;;25.05;;
27566;SDS011;15006;48.584;9.186;2023-03-01T06:09:05;37.58;;;25.05;;
27566;SDS011;15006;48.584;9.186;2023-03-01T06:11:34;38.67;;;23.98;;
27566;SDS011;15006;48.584;9.186;2023-03-01T06:14:01;43.17;;;25.20;;
27566;SDS011;15006;48.584;9.186;2023-03-01T06:16:28;39.75;;;25.10;;
27566;SDS011;15006;48.584;9.186;2023-03-01T06:18:54;40.72;;;25.45;;
27566;SDS011;15006;48.584;9.186;2023-03-01T06:21:20;38.25;;;24.20;;
27566;SDS011;15006;48.584;9.186;2023-03-01T06:23:46;39.75;;;23.73;;
27566;SDS011;15006;48.584;9.186;2023-03-01T06:26:12;40.25;;;25.60;;
27566;SDS011;15006;48.584;9.186;2023-03-01T06:28:38;40.28;;;24.88;;
27566;SDS011;15006;48.584;9.186;2023-03-01T06:31:04;38.10;;;24.13;;
27566;SDS011;15006;48.584;9.186;2023-03-01T06:33:33;38.78;;;24.65;;
27566;SDS011;15006;48.584;9.186;2023-03-01T06:35:59;37.25;;;24.38;;
27566;SDS011;15006;48.584;9.186;2023-03-01T06:38:26;35.03;;;23.05;;
27566;SDS011;15006;48.584;9.186;2023-03-01T06:40:52;37.95;;;24.13;;
27566;SDS011;15006;48.584;9.186;2023-03-01T06:43:20;38.45;;;23.48;;
27566;SDS011;15006;48.584;9.186;2023-03-01T06:45:46;37.25;;;23.45;;
27566;SDS011;15006;48.584;9.186;2023-03-01T06:48:12;37.85;;;23.80;;
27566;SDS011;15006;48.584;9.186;2023-03-01T06:50:38;40.58;;;24.27;;
27566;SDS011;15006;48.584;9.186;2023-03-01T06:53:04;39.38;;;23.58;;
27566;SDS011;15006;48.584;9.186;2023-03-01T06:55:30;34.85;;;24.25;;
27566;SDS011;15006;48.584;9.186;2023-03-01T06:57:58;40.75;;;24.92;;
27566;SDS011;15006;48.584;9.186;2023-03-01T07:00:26;41.80;;;25.17;;
27566;SDS011;15006;48.584;9.186;2023-03-01T07:02:53;49.50;;;28.98;;
27566;SDS011;15006;48.584;9.186;2023-03-01T07:05:20;43.10;;;28.52;;
27566;SDS011;15006;48.584;9.186;2023-03-01T07:07:46;44.03;;;27.17;;
27566;SDS011;15006;48.584;9.186;2023-03-01T07:10:12;41.78;;;27.20;;
27566;SDS011;15006;48.584;9.186;2023-03-01T07:12:38;40.90;;;25.83;;
27566;SDS011;15006;48.584;9.186;2023-03-01T07:15:04;40.45;;;24.95;;
27566;SDS011;15006;48.584;9.186;2023-03-01T07:17:31;41.38;;;25.30;;
27566;SDS011;15006;48.584;9.186;2023-03-01T07:19:57;38.83;;;25.27;;
27566;SDS011;15006;48.584;9.186;2023-03-01T07:22:23;39.65;;;24.83;;
27566;SDS011;15006;48.584;9.186;2023-03-01T07:24:49;48.38;;;26.40;;
27566;SDS011;15006;48.584;9.186;2023-03-01T07:27:14;42.20;;;25.08;;
27566;SDS011;15006;48.584;9.186;2023-03-01T07:29:40;40.20;;;25.40;;
27566;SDS011;15006;48.584;9.186;2023-03-01T07:32:06;42.97;;;26.73;;
27566;SDS011;15006;48.584;9.186;2023-03-01T07:34:32;46.10;;;27.17;;
27566;SDS011;15006;48.584;9.186;2023-03-01T07:36:58;38.75;;;25.17;;
27566;SDS011;15006;48.584;9.186;2023-03-01T07:39:24;40.83;;;24.73;;
27566;SDS011;15006;48.584;9.186;2023-03-01T07:41:51;43.30;;;26.52;;
27566;SDS011;15006;48.584;9.186;2023-03-01T07:44:17;41.60;;;25.33;;
27566;SDS011;15006;48.584;9.186;2023-03-01T07:46:43;42.47;;;25.80;;
27566;SDS011;15006;48.584;9.186;2023-03-01T07:49:10;39.92;;;24.65;;
27566;SDS011;15006;48.584;9.186;2023-03-01T07:51:36;38.85;;;25.17;;
27566;SDS011;15006;48.584;9.186;2023-03-01T07:54:02;36.15;;;24.42;;
27566;SDS011;15006;48.584;9.186;2023-03-01T07:56:28;39.08;;;25.42;;
27566;SDS011;15006;48.584;9.186;2023-03-01T07:58:54;36.67;;;25.00;;
27566;SDS011;15006;48.584;9.186;2023-03-01T08:01:20;38.63;;;25.15;;
27566;SDS011;15006;48.584;9.186;2023-03-01T08:03:47;38.90;;;25.65;;
27566;SDS011;15006;48.584;9.186;2023-03-01T08:06:14;36.15;;;23.88;;
27566;SDS011;15006;48.584;9.186;2023-03-01T08:08:42;40.28;;;25.40;;
27566;SDS011;15006;48.584;9.186;2023-03-01T08:11:10;43.20;;;25.17;;
27566;SDS011;15006;48.584;9.186;2023-03-01T08:13:38;28.73;;;19.10;;
27566;SDS011;15006;48.584;9.186;2023-03-01T08:16:05;39.90;;;26.02;;
27566;SDS011;15006;48.584;9.186;2023-03-01T08:18:37;38.78;;;25.08;;
27566;SDS011;15006;48.584;9.186;2023-03-01T08:21:03;40.17;;;25.60;;
27566;SDS011;15006;48.584;9.186;2023-03-01T08:23:34;40.95;;;25.85;;
27566;SDS011;15006;48.584;9.186;2023-03-01T08:26:08;39.53;;;24.58;;
27566;SDS011;15006;48.584;9.186;2023-03-01T08:28:43;36.67;;;25.05;;
27566;SDS011;15006;48.584;9.186;2023-03-01T08:33:50;33.38;;;24.00;;
27566;SDS011;15006;48.584;9.186;2023-03-01T08:36:25;36.38;;;23.88;;
27566;SDS011;15006;48.584;9.186;2023-03-01T08:39:01;34.17;;;24.25;;
27566;SDS011;15006;48.584;9.186;2023-03-01T08:41:28;35.00;;;23.75;;
27566;SDS011;15006;48.584;9.186;2023-03-01T08:43:55;38.85;;;24.98;;
27566;SDS011;15006;48.584;9.186;2023-03-01T08:46:25;36.40;;;24.38;;
27566;SDS011;15006;48.584;9.186;2023-03-01T08:49:08;36.55;;;23.88;;
27566;SDS011;15006;48.584;9.186;2023-03-01T08:51:37;36.08;;;24.30;;
27566;SDS011;15006;48.584;9.186;2023-03-01T08:54:04;33.92;;;23.35;;
27566;SDS011;15006;48.584;9.186;2023-03-01T08:56:47;35.13;;;23.70;;
27566;SDS011;15006;48.584;9.186;2023-03-01T08:59:14;34.78;;;23.25;;
27566;SDS011;15006;48.584;9.186;2023-03-01T09:01:42;33.60;;;23.52;;
27566;SDS011;15006;48.584;9.186;2023-03-01T09:04:11;34.85;;;22.63;;
27566;SDS011;15006;48.584;9.186;2023-03-01T09:06:38;29.92;;;22.27;;
27566;SDS011;15006;48.584;9.186;2023-03-01T09:09:04;34.05;;;23.75;;
27566;SDS011;15006;48.584;9.186;2023-03-01T09:11:31;34.30;;;23.65;;
27566;SDS011;15006;48.584;9.186;2023-03-01T09:13:58;35.30;;;23.25;;
27566;SDS011;15006;48.584;9.186;2023-03-01T09:16:24;32.13;;;22.10;;
27566;SDS011;15006;48.584;9.186;2023-03-01T09:18:51;38.03;;;22.90;;
27566;SDS011;15006;48.584;9.186;2023-03-01T09:21:20;33.42;;;22.92;;
27566;SDS011;15006;48.584;9.186;2023-03-01T09:23:48;33.50;;;22.65;;
27566;SDS011;15006;48.584;9.186;2023-03-01T09:26:16;37.45;;;23.73;;
27566;SDS011;15006;48.584;9.186;2023-03-01T09:28:47;38.55;;;23.90;;
27566;SDS011;15006;48.584;9.186;2023-03-01T09:31:17;32.35;;;22.05;;
27566;SDS011;15006;48.584;9.186;2023-03-01T09:33:46;33.17;;;23.92;;
27566;SDS011;15006;48.584;9.186;2023-03-01T09:36:17;31.55;;;22.63;;
27566;SDS011;15006;48.584;9.186;2023-03-01T09:38:46;32.55;;;22.48;;
27566;SDS011;15006;48.584;9.186;2023-03-01T09:41:24;33.25;;;22.55;;
27566;SDS011;15006;48.584;9.186;2023-03-01T09:46:56;34.65;;;23.75;;
27566;SDS011;15006;48.584;9.186;2023-03-01T09:49:25;33.38;;;23.17;;
27566;SDS011;15006;48.584;9.186;2023-03-01T09:52:38;33.30;;;22.65;;
27566;SDS011;15006;48.584;9.186;2023-03-01T09:54:52;33.55;;;23.00;;
27566;SDS011;15006;48.584;9.186;2023-03-01T09:57:26;32.83;;;22.60;;
27566;SDS011;15006;48.584;9.186;2023-03-01T10:00:12;31.40;;;22.75;;
27566;SDS011;15006;48.584;9.186;2023-03-01T10:08:34;32.17;;;22.83;;
27566;SDS011;15006;48.584;9.186;2023-03-01T10:11:44;31.90;;;22.20;;
27566;SDS011;15006;48.584;9.186;2023-03-01T10:24:53;30.70;;;22.13;;
27566;SDS011;15006;48.584;9.186;2023-03-01T10:27:23;27.05;;;21.60;;
27566;SDS011;15006;48.584;9.186;2023-03-01T10:33:26;29.90;;;21.83;;
27566;SDS011;15006;48.584;9.186;2023-03-01T10:35:54;29.38;;;21.73;;
27566;SDS011;15006;48.584;9.186;2023-03-01T10:38:20;28.92;;;21.55;;
27566;SDS011;15006;48.584;9.186;2023-03-01T10:40:59;29.67;;;22.33;;
27566;SDS011;15006;48.584;9.186;2023-03-01T10:43:46;28.98;;;20.63;;
27566;SDS011;15006;48.584;9.186;2023-03-01T10:46:36;29.60;;;20.55;;
27566;SDS011;15006;48.584;9.186;2023-03-01T10:51:41;22.30;;;18.83;;
27566;SDS011;15006;48.584;9.186;2023-03-01T10:54:18;23.98;;;19.35;;
27566;SDS011;15006;48.584;9.186;2023-03-01T10:56:54;29.10;;;17.90;;
27566;SDS011;15006;48.584;9.186;2023-03-01T11:04:35;17.88;;;15.80;;
27566;SDS011;15006;48.584;9.186;2023-03-01T11:07:01;17.90;;;15.70;;
27566;SDS011;15006;48.584;9.186;2023-03-01T11:09:32;17.42;;;15.48;;
27566;SDS011;15006;48.584;9.186;2023-03-01T11:12:05;17.13;;;15.43;;
27566;SDS011;15006;48.584;9.186;2023-03-01T11:14:46;15.90;;;14.30;;
27566;SDS011;15006;48.584;9.186;2023-03-01T11:17:23;14.80;;;13.45;;
27566;SDS011;15006;48.584;9.186;2023-03-01T11:22:40;17.13;;;13.90;;
27566;SDS011;15006;48.584;9.186;2023-03-01T11:25:41;14.02;;;12.73;;
27566;SDS011;15006;48.584;9.186;2023-03-01T11:28:14;14.40;;;13.10;;
27566;SDS011;15006;48.584;9.186;2023-03-01T11:30:48;13.23;;;12.02;;
27566;SDS011;15006;48.584;9.186;2023-03-01T11:33:33;13.82;;;12.52;;
27566;SDS011;15006;48.584;9.186;2023-03-01T11:36:41;13.45;;;12.18;;
27566;SDS011;15006;48.584;9.186;2023-03-01T11:45:09;12.98;;;11.77;;
27566;SDS011;15006;48.584;9.186;2023-03-01T11:56:16;12.48;;;11.18;;
27566;SDS011;15006;48.584;9.186;2023-03-01T12:01:33;13.18;;;11.98;;
27566;SDS011;15006;48.584;9.186;2023-03-01T12:08:53;12.75;;;11.63;;
27566;SDS011;15006;48.584;9.186;2023-03-01T12:14:11;11.55;;;10.52;;
27566;SDS011;15006;48.584;9.186;2023-03-01T12:22:47;12.15;;;11.15;;
27566;SDS011;15006;48.584;9.186;2023-03-01T12:41:10;11.52;;;10.55;;
27566;SDS011;15006;48.584;9.186;2023-03-01T12:44:07;13.10;;;10.75;;
27566;SDS011;15006;48.584;9.186;2023-03-01T12:50:26;11.95;;;10.95;;
27566;SDS011;15006;48.584;9.186;2023-03-01T12:53:32;11.57;;;10.68;;
27566;SDS011;15006;48.584;9.186;2023-03-01T12:56:05;10.93;;;9.93;;
27566;SDS011;15006;48.584;9.186;2023-03-01T12:58:51;11.57;;;10.57;;
27566;SDS011;15006;48.584;9.186;2023-03-01T13:01:45;12.30;;;11.35;;
27566;SDS011;15006;48.584;9.186;2023-03-01T13:04:58;11.98;;;10.88;;
27566;SDS011;15006;48.584;9.186;2023-03-01T13:10:47;11.73;;;10.80;;
27566;SDS011;15006;48.584;9.186;2023-03-01T13:13:23;12.15;;;11.05;;
27566;SDS011;15006;48.584;9.186;2023-03-01T13:15:51;15.43;;;10.77;;
27566;SDS011;15006;48.584;9.186;2023-03-01T13:20:49;12.45;;;11.30;;
27566;SDS011;15006;48.584;9.186;2023-03-01T13:33:57;12.38;;;11.07;;
27566;SDS011;15006;48.584;9.186;2023-03-01T13:49:56;10.73;;;9.82;;
27566;SDS011;15006;48.584;9.186;2023-03-01T13:55:07;11.60;;;10.67;;
27566;SDS011;15006;48.584;9.186;2023-03-01T13:57:40;11.40;;;10.45;;
27566;SDS011;15006;48.584;9.186;2023-03-01T14:00:33;11.77;;;10.85;;
27566;SDS011;15006;48.584;9.186;2023-03-01T14:03:08;12.82;;;10.73;;
27566;SDS011;15006;48.584;9.186;2023-03-01T14:05:35;12.05;;;11.05;;
27566;SDS011;15006;48.584;9.186;2023-03-01T14:08:03;11.30;;;10.40;;
27566;SDS011;15006;48.584;9.186;2023-03-01T14:10:41;11.40;;;10.50;;
27566;SDS011;15006;48.584;9.186;2023-03-01T14:13:24;11.00;;;10.15;;
27566;SDS011;15006;48.584;9.186;2023-03-01T14:19:33;12.05;;;10.90;;
27566;SDS011;15006;48.584;9.186;2023-03-01T14:24:55;11.40;;;10.10;;
27566;SDS011;15006;48.584;9.186;2023-03-01T14:27:35;11.60;;;10.60;;
27566;SDS011;15006;48.584;9.186;2023-03-01T14:33:32;12.25;;;10.13;;
27566;SDS011;15006;48.584;9.186;2023-03-01T14:36:05;10.95;;;10.05;;
27566;SDS011;15006;48.584;9.186;2023-03-01T14:38:38;10.05;;;9.25;;
27566;SDS011;15006;48.584;9.186;2023-03-01T14:41:10;11.20;;;10.10;;
27566;SDS011;15006;48.584;9.186;2023-03-01T14:43:41;11.23;;;9.85;;
27566;SDS011;15006;48.584;9.186;2023-03-01T14:49:10;10.85;;;9.77;;
27566;SDS011;15006;48.584;9.186;2023-03-01T14:51:42;10.90;;;9.85;;
27566;SDS011;15006;48.584;9.186;2023-03-01T14:54:21;11.52;;;10.20;;
27566;SDS011;15006;48.584;9.186;2023-03-01T14:57:01;11.77;;;10.63;;
27566;SDS011;15006;48.584;9.186;2023-03-01T14:59:28;10.63;;;9.80;;
27566;SDS011;15006;48.584;9.186;2023-03-01T15:01:55;11.88;;;10.63;;
27566;SDS011;15006;48.584;9.186;2023-03-01T15:04:23;12.05;;;10.82;;
27566;SDS011;15006;48.584;9.186;2023-03-01T15:06:52;11.60;;;10.60;;
27566;SDS011;15006;48.584;9.186;2023-03-01T15:09:20;11.50;;;10.40;;
27566;SDS011;15006;48.584;9.186;2023-03-01T15:11:47;11.98;;;10.98;;
27566;SDS011;15006;48.584;9.186;2023-03-01T15:17:16;17.45;;;12.05;;
27566;SDS011;15006;48.584;9.186;2023-03-01T15:20:01;12.15;;;10.98;;
27566;SDS011;15006;48.584;9.186;2023-03-01T15:22:31;13.55;;;12.13;;
27566;SDS011;15006;48.584;9.186;2023-03-01T15:24:57;13.20;;;11.95;;
27566;SDS011;15006;48.584;9.186;2023-03-01T15:27:24;13.32;;;12.02;;
27566;SDS011;15006;48.584;9.186;2023-03-01T15:32:32;14.18;;;12.77;;
27566;SDS011;15006;48.584;9.186;2023-03-01T15:35:32;14.20;;;12.60;;
27566;SDS011;15006;48.584;9.186;2023-03-01T15:41:26;15.85;;;13.70;;
27566;SDS011;15006;48.584;9.186;2023-03-01T15:43:59;13.73;;;12.43;;
27566;SDS011;15006;48.584;9.186;2023-03-01T15:46:38;15.93;;;13.10;;
27566;SDS011;15006;48.584;9.186;2023-03-01T15:49:05;14.90;;;13.18;;
27566;SDS011;15006;48.584;9.186;2023-03-01T15:52:09;14.35;;;12.95;;
27566;SDS011;15006;48.584;9.186;2023-03-01T15:54:40;13.98;;;12.57;;
27566;SDS011;15006;48.584;9.186;2023-03-01T15:57:13;14.45;;;13.02;;
27566;SDS011;15006;48.584;9.186;2023-03-01T15:59:41;13.23;;;12.02;;
27566;SDS011;15006;48.584;9.186;2023-03-01T16:02:09;14.98;;;13.00;;
27566;SDS011;15006;48.584;9.186;2023-03-01T16:04:37;14.45;;;12.80;;
27566;SDS011;15006;48.584;9.186;2023-03-01T16:07:04;14.48;;;12.98;;
27566;SDS011;15006;48.584;9.186;2023-03-01T16:09:31;14.10;;;12.68;;
27566;SDS011;15006;48.584;9.186;2023-03-01T16:11:57;14.35;;;12.82;;
27566;SDS011;15006;48.584;9.186;2023-03-01T16:14:23;15.00;;;13.45;;
27566;SDS011;15006;48.584;9.186;2023-03-01T16:16:49;17.33;;;13.60;;
27566;SDS011;15006;48.584;9.186;2023-03-01T16:19:15;16.13;;;14.43;;
27566;SDS011;15006;48.584;9.186;2023-03-01T16:21:42;22.52;;;15.30;;
27566;SDS011;15006;48.584;9.186;2023-03-01T16:24:09;17.35;;;14.25;;
27566;SDS011;15006;48.584;9.186;2023-03-01T16:26:36;18.05;;;13.40;;
27566;SDS011;15006;48.584;9.186;2023-03-01T16:29:02;19.90;;;13.55;;
27566;SDS011;15006;48.584;9.186;2023-03-01T16:31:29;15.68;;;13.45;;
27566;SDS011;15006;48.584;9.186;2023-03-01T16:33:56;17.75;;;13.82;;
27566;SDS011;15006;48.584;9.186;2023-03-01T16:36:24;20.02;;;14.07;;
27566;SDS011;15006;48.584;9.186;2023-03-01T16:38:53;18.15;;;14.52;;
27566;SDS011;15006;48.584;9.186;2023-03-01T16:41:21;18.92;;;14.38;;
27566;SDS011;15006;48.584;9.186;2023-03-01T16:43:48;17.05;;;14.35;;
27566;SDS011;15006;48.584;9.186;2023-03-01T16:46:16;20.02;;;14.25;;
27566;SDS011;15006;48.584;9.186;2023-03-01T16:48:48;18.90;;;14.63;;
27566;SDS011;15006;48.584;9.186;2023-03-01T16:51:15;17.52;;;14.85;;
27566;SDS011;15006;48.584;9.186;2023-03-01T16:53:41;17.90;;;14.48;;
27566;SDS011;15006;48.584;9.186;2023-03-01T16:56:08;20.75;;;15.05;;
27566;SDS011;15006;48.584;9.186;2023-03-01T16:58:36;19.88;;;14.63;;
27566;SDS011;15006;48.584;9.186;2023-03-01T17:01:04;24.55;;;15.35;;
27566;SDS011;15006;48.584;9.186;2023-03-01T17:03:37;23.02;;;15.90;;
27566;SDS011;15006;48.584;9.186;2023-03-01T17:06:05;21.42;;;15.85;;
27566;SDS011;15006;48.584;9.186;2023-03-01T17:08:35;23.83;;;15.77;;
27566;SDS011;15006;48.584;9.186;2023-03-01T17:11:03;21.35;;;15.80;;
27566;SDS011;15006;48.584;9.186;2023-03-01T17:13:38;22.95;;;16.15;;
27566;SDS011;15006;48.584;9.186;2023-03-01T17:16:05;22.60;;;16.65;;
27566;SDS011;15006;48.584;9.186;2023-03-01T17:18:38;21.52;;;16.15;;
27566;SDS011;15006;48.584;9.186;2023-03-01T17:21:05;25.95;;;17.58;;